Accueil
METAR-TAF:

METAR-TAF

Aéroports :

Douchanbé, Tadjikistan

Aéroport international de Douchanbé

latitude: 38-33N, longitude: 068-47E, altitude: 803 m

Observation

Le bulletin a été fait il y a 26 minutes, à 15:00 UTC
Vent 4 kt de direction variable
Température 23°C
Humidité 33%
Pression 1015 hPa
Visibilité 10 km ou plus

METAR: UTDD 191500Z VRB02MPS 9999 NSC 23/06 Q1015 R09/D NOSIG RMK QFE693/0924

Heure: 20:26 (15:26 UTC)

Prévision

Le bulletin a été fait il y a 3 heures et 26 minutes, à 12:00 UTC
Prévision valable du 19 à 13 UTC au 20 à 01 UTC
Vent 4 kt de direction variable
Visibilité: 6000 m
Quelques nuages à une hauteur de 6600 ft
Nuages épars à une hauteur de 13000 ft
Temporairement
du 19 à 13 UTC au 19 à 19 UTC
Vent 14 kt de ouest

TAF: UTDD 191200Z 1913/2001 VRB02MPS 6000 FEW066 SCT130 TEMPO 1913/1919 27007MPS

Observations et prévisions météorologiques de plus de 4000 aéroports (messages METAR et TAF).

Les stations disponibles sont représentées par des disques jaunes et rouges sur la carte.

Passer la souris dessus pour voir le nom de la station.

Cliquer dessus pour voir les observations et prévisions météorologiques.

Pour changer de carte: cliquez sur les boutons verts avec une croix noire pour zoomer, sur le bouton vert avec un tiret pour effectuer un zoom arrière, ou sur les flèches vertes pour les cartes adjacentes.


METAR-TAF: